Huvudsida
METAR-TAF:

METAR-TAF

Flygplatser :

Karachi, Pakistan

latitud: 24-54N, longitud: 067-08E, höjd: 21 m

Aktuellt väderrapport

Denna rapport gjordes för 31 minuter sedan, klockan 09:25 UTC
Vind 14 kt från väst/sydväst
Temperatur 32°C
Fuktighet 56%
Tryck 1000 hPa
Sikt: 6000 m
Spridda moln på en höjd av 2000 ft
Brutna moln på en höjd av 3000 ft

METAR: OPKC 190925Z 24014KT 6000 SCT020 BKN030 32/22 Q1000 NOSIG

Tid: 14:56 (09:56 UTC)

Väderprognos

Denna rapport gjordes för 3 timmar och 26 minuter sedan, klockan 06:30 UTC
Prognos gäller från 19 kl. 09 UTC till 19 kl. 18 UTC
Vind 8 kt från väst i byarna ända upp till 18 kt
Sikt: 5000 m
Spridda moln på en höjd av 2000 ft
Brutna moln på en höjd av 3000 ft
torrdis

TAF: OPKC 190630Z 1909/1918 26008G18KT 5000 HZ SCT020 BKN030

Aktuella väderrapporter och prognoser från 4000 flygplatser (METAR- och TAF-rapporter).

De tillgängliga stationerna syns som gula och röda prickar på kartan.

För musen över prickarna för att se namnen på stationerna.

Klicka sedan för att få väderrapporter och prognoser.

För att ändra kartan: Klicka på de gröna knapparna med ett svart kors på för att zooma in; den gröna knappen med ett streck på för att zooma ut; eller på de gröna pilarna för angränsande kartor.


METAR-TAF: